createdAt,value
2018-08-25T00:00:30.496Z,2.50
2018-08-25T00:01:30.617Z,2.40
2018-08-25T00:02:30.717Z,2.30
2018-08-25T00:03:30.817Z,2.20
2018-08-25T00:04:30.915Z,2.30
2018-08-25T00:05:31.013Z,2.40
2018-08-25T00:06:31.110Z,2.30
2018-08-25T00:07:31.205Z,2.50
2018-08-25T00:08:31.298Z,2.20
2018-08-25T00:09:31.396Z,2.10
2018-08-25T00:10:31.480Z,2.30
2018-08-25T00:11:31.570Z,2.40
2018-08-25T00:12:31.664Z,2.30
2018-08-25T00:13:31.765Z,2.20
2018-08-25T00:14:31.856Z,2.20
2018-08-25T00:15:31.966Z,2.30
2018-08-25T00:16:32.063Z,2.30
2018-08-25T00:17:32.153Z,2.20
2018-08-25T00:18:32.249Z,2.20
2018-08-25T00:19:32.333Z,2.20
2018-08-25T00:20:32.430Z,2.30
2018-08-25T00:21:32.523Z,2.40
2018-08-25T00:22:32.622Z,2.40
2018-08-25T00:23:32.745Z,2.70
2018-08-25T00:24:32.847Z,2.30
2018-08-25T00:25:32.945Z,2.50
2018-08-25T00:26:33.053Z,2.30
2018-08-25T00:27:33.159Z,2.60
2018-08-25T00:28:33.264Z,2.50
2018-08-25T00:29:33.359Z,2.60
2018-08-25T00:30:33.455Z,2.90
2018-08-25T00:31:33.554Z,2.30
2018-08-25T00:32:33.669Z,2.50
2018-08-25T00:33:33.764Z,2.10
2018-08-25T00:34:33.840Z,2.00
2018-08-25T00:35:33.938Z,2.30
2018-08-25T00:36:34.052Z,2.20
2018-08-25T00:37:34.157Z,2.50
2018-08-25T00:38:34.266Z,2.50
2018-08-25T00:39:34.360Z,2.10
2018-08-25T00:40:34.453Z,2.20
2018-08-25T00:41:34.547Z,2.00
2018-08-25T00:42:34.646Z,2.30
2018-08-25T00:43:34.746Z,2.40
2018-08-25T00:44:34.844Z,2.40
2018-08-25T00:45:34.953Z,2.20
2018-08-25T00:46:35.041Z,2.30
2018-08-25T00:47:35.192Z,2.50
2018-08-25T00:48:35.250Z,2.50
2018-08-25T00:49:35.336Z,2.30
2018-08-25T00:50:35.428Z,2.10
2018-08-25T00:51:35.525Z,2.50
2018-08-25T00:52:35.612Z,2.30
2018-08-25T00:53:35.715Z,2.60
2018-08-25T00:54:35.813Z,2.50
2018-08-25T00:55:35.911Z,2.20
2018-08-25T00:56:36.010Z,2.40
2018-08-25T00:57:36.100Z,2.50
2018-08-25T00:58:36.198Z,2.90
2018-08-25T00:59:36.298Z,2.40
2018-08-25T01:00:36.392Z,2.70
2018-08-25T01:01:36.493Z,2.50
2018-08-25T01:02:36.574Z,2.40
2018-08-25T01:03:36.694Z,2.60
2018-08-25T01:04:36.794Z,2.40
2018-08-25T01:05:36.886Z,2.40
2018-08-25T01:06:36.985Z,2.30
2018-08-25T01:07:37.081Z,2.10
2018-08-25T01:08:37.176Z,2.20
2018-08-25T01:09:37.269Z,2.20
2018-08-25T01:10:37.364Z,2.20
2018-08-25T01:11:37.464Z,2.50
2018-08-25T01:12:37.565Z,2.20
2018-08-25T01:13:37.662Z,2.10
2018-08-25T01:14:37.758Z,2.20
2018-08-25T01:15:37.917Z,2.60
2018-08-25T01:16:37.959Z,2.30
2018-08-25T01:17:38.057Z,2.30
2018-08-25T01:18:38.163Z,2.20
2018-08-25T01:19:38.265Z,2.50
2018-08-25T01:20:38.367Z,2.40
2018-08-25T01:21:38.471Z,2.30
2018-08-25T01:22:38.577Z,2.20
2018-08-25T01:23:38.670Z,2.10
2018-08-25T01:24:38.769Z,2.30
2018-08-25T01:25:38.867Z,2.20
2018-08-25T01:26:38.964Z,2.20
2018-08-25T01:27:39.060Z,2.30
2018-08-25T01:28:39.157Z,2.40
2018-08-25T01:29:39.274Z,2.10
2018-08-25T01:30:39.372Z,2.40
2018-08-25T01:31:39.455Z,2.50
2018-08-25T01:32:39.546Z,2.50
2018-08-25T01:33:39.650Z,2.80
2018-08-25T01:34:39.761Z,2.30
2018-08-25T01:35:39.856Z,2.60
2018-08-25T01:36:39.954Z,2.40
2018-08-25T01:37:40.060Z,2.50
2018-08-25T01:38:40.161Z,2.60
2018-08-25T01:39:40.246Z,2.50
2018-08-25T01:40:40.356Z,2.40
2018-08-25T01:41:40.453Z,2.30
2018-08-25T01:42:40.548Z,2.80
2018-08-25T01:43:40.652Z,2.70
2018-08-25T01:44:40.746Z,2.40
2018-08-25T01:45:40.846Z,2.30
2018-08-25T01:46:40.941Z,2.60
2018-08-25T01:47:41.034Z,2.20
2018-08-25T01:48:41.141Z,2.30
2018-08-25T01:49:41.233Z,2.30
2018-08-25T01:50:41.328Z,2.30
2018-08-25T01:51:41.426Z,2.50
2018-08-25T01:52:41.527Z,2.40
2018-08-25T01:53:41.629Z,2.20
2018-08-25T01:54:41.728Z,2.30
2018-08-25T01:55:41.823Z,2.20
2018-08-25T01:56:41.923Z,2.60
2018-08-25T01:57:42.017Z,2.30
2018-08-25T01:58:42.110Z,2.30
2018-08-25T01:59:42.204Z,2.10
2018-08-25T02:00:42.303Z,2.10
2018-08-25T02:01:42.398Z,2.30
2018-08-25T02:02:42.536Z,2.30
2018-08-25T02:03:42.606Z,2.70
2018-08-25T02:04:42.697Z,2.40
2018-08-25T02:05:42.794Z,2.60
2018-08-25T02:06:42.892Z,2.20
2018-08-25T02:07:42.989Z,2.40
2018-08-25T02:08:43.093Z,2.40
2018-08-25T02:09:43.185Z,2.60
2018-08-25T02:10:43.273Z,2.70
2018-08-25T02:11:43.371Z,2.50
2018-08-25T02:12:43.472Z,2.50
2018-08-25T02:13:43.567Z,2.70
2018-08-25T02:14:43.664Z,2.50
2018-08-25T02:15:43.759Z,2.60
2018-08-25T02:16:43.858Z,2.50
2018-08-25T02:17:43.957Z,2.70
2018-08-25T02:18:44.050Z,2.90
2018-08-25T02:19:44.151Z,2.40
2018-08-25T02:20:44.241Z,2.60
2018-08-25T02:21:44.342Z,2.60
2018-08-25T02:22:44.436Z,2.40
2018-08-25T02:23:44.531Z,2.60
2018-08-25T02:24:44.629Z,2.40
2018-08-25T02:25:44.730Z,2.40
2018-08-25T02:26:44.830Z,2.60
2018-08-25T02:27:44.921Z,2.70
2018-08-25T02:28:45.019Z,2.50
2018-08-25T02:29:45.121Z,2.30
2018-08-25T02:30:45.214Z,2.50
2018-08-25T02:31:45.306Z,2.30
2018-08-25T02:32:45.406Z,2.50
2018-08-25T02:33:45.502Z,2.40
2018-08-25T02:34:45.599Z,2.60
2018-08-25T02:35:45.697Z,2.90
2018-08-25T02:36:45.792Z,2.50
2018-08-25T02:37:45.895Z,2.70
2018-08-25T02:38:46.043Z,2.50
2018-08-25T02:39:46.088Z,2.40
2018-08-25T02:40:46.185Z,2.50
2018-08-25T02:41:46.282Z,3.00
2018-08-25T02:42:46.383Z,2.30
2018-08-25T02:43:46.476Z,2.60
2018-08-25T02:44:46.574Z,2.40
2018-08-25T02:45:46.670Z,2.70
2018-08-25T02:46:46.771Z,2.40
2018-08-25T02:47:46.866Z,2.50
2018-08-25T02:48:46.964Z,3.10
2018-08-25T02:49:47.059Z,2.40
2018-08-25T02:50:47.148Z,2.80
2018-08-25T02:51:47.255Z,2.60
2018-08-25T02:52:47.355Z,2.50
2018-08-25T02:53:47.453Z,2.40
2018-08-25T02:54:47.551Z,2.90
2018-08-25T02:55:47.650Z,2.70
2018-08-25T02:56:47.747Z,2.50
2018-08-25T02:57:47.845Z,2.60
2018-08-25T02:58:47.941Z,2.60
2018-08-25T02:59:48.038Z,2.50
2018-08-25T03:00:48.136Z,2.70
2018-08-25T03:01:48.231Z,2.70
2018-08-25T03:02:48.331Z,2.70
2018-08-25T03:03:48.444Z,3.10
2018-08-25T03:04:48.542Z,2.90
2018-08-25T03:05:48.641Z,2.60
2018-08-25T03:06:48.738Z,2.80
2018-08-25T03:07:48.834Z,2.60
2018-08-25T03:08:48.932Z,2.40
2018-08-25T03:09:49.030Z,2.60
2018-08-25T03:10:49.124Z,2.60
2018-08-25T03:11:49.226Z,2.60
2018-08-25T03:12:49.322Z,2.50
2018-08-25T03:13:49.572Z,2.60
2018-08-25T03:14:49.520Z,2.60
2018-08-25T03:15:49.612Z,2.70
2018-08-25T03:16:49.712Z,2.80
2018-08-25T03:17:49.811Z,2.50
2018-08-25T03:18:49.906Z,2.80
2018-08-25T03:19:50.004Z,2.60
2018-08-25T03:20:50.099Z,2.80
2018-08-25T03:21:50.197Z,2.40
2018-08-25T03:22:50.295Z,2.40
2018-08-25T03:23:50.392Z,2.30
2018-08-25T03:24:50.487Z,2.80
2018-08-25T03:25:50.582Z,2.60
2018-08-25T03:26:50.676Z,2.40
2018-08-25T03:27:50.776Z,2.50
2018-08-25T03:28:50.876Z,2.50
2018-08-25T03:29:50.970Z,2.30
2018-08-25T03:30:51.066Z,2.30
2018-08-25T03:31:51.168Z,2.60
2018-08-25T03:32:51.263Z,2.50
2018-08-25T03:33:51.365Z,2.70
2018-08-25T03:34:51.458Z,2.40
2018-08-25T03:35:51.554Z,2.20
2018-08-25T03:36:51.650Z,2.40
2018-08-25T03:37:51.739Z,2.50
2018-08-25T03:38:51.833Z,2.20
2018-08-25T03:39:51.935Z,2.50
2018-08-25T03:40:52.025Z,2.50
2018-08-25T03:41:52.132Z,2.10
2018-08-25T03:42:52.223Z,2.40
2018-08-25T03:43:52.321Z,2.20
2018-08-25T03:44:52.419Z,2.40
2018-08-25T03:45:52.517Z,2.50
2018-08-25T03:46:52.612Z,2.30
2018-08-25T03:47:52.710Z,2.60
2018-08-25T03:48:52.809Z,2.20
2018-08-25T03:49:52.906Z,2.30
2018-08-25T03:50:53.005Z,2.10
2018-08-25T03:51:53.101Z,2.50
2018-08-25T03:52:53.197Z,2.30
2018-08-25T03:53:53.302Z,2.30
2018-08-25T03:54:53.396Z,2.40
2018-08-25T03:55:53.497Z,2.20
2018-08-25T03:56:53.595Z,2.20
2018-08-25T03:57:53.681Z,2.30
2018-08-25T03:58:53.776Z,2.70
2018-08-25T03:59:53.878Z,2.20
2018-08-25T04:00:53.970Z,2.10
2018-08-25T04:01:54.067Z,2.50
2018-08-25T04:02:54.161Z,2.10
2018-08-25T04:03:54.265Z,2.10
2018-08-25T04:04:54.358Z,2.50
2018-08-25T04:05:54.459Z,2.40
2018-08-25T04:06:54.554Z,2.40
2018-08-25T04:07:54.650Z,2.30
2018-08-25T04:08:54.748Z,2.30
2018-08-25T04:09:54.844Z,2.30
2018-08-25T04:10:54.942Z,2.40
2018-08-25T04:11:55.039Z,2.30
2018-08-25T04:12:55.139Z,2.30
2018-08-25T04:13:55.237Z,2.40
2018-08-25T04:14:55.406Z,2.30
2018-08-25T04:15:55.433Z,2.60
2018-08-25T04:16:55.529Z,2.20
2018-08-25T04:17:55.621Z,2.50
2018-08-25T04:18:55.724Z,2.30
2018-08-25T04:19:55.821Z,2.20
2018-08-25T04:20:55.919Z,2.20
2018-08-25T04:21:56.016Z,2.40
2018-08-25T04:22:56.111Z,2.40
2018-08-25T04:23:56.214Z,2.20
2018-08-25T04:24:56.306Z,2.10
2018-08-25T04:25:56.403Z,2.30
2018-08-25T04:26:56.502Z,1.80
2018-08-25T04:27:56.597Z,1.90
2018-08-25T04:28:56.693Z,2.10
2018-08-25T04:29:56.795Z,2.30
2018-08-25T04:30:56.907Z,2.00
2018-08-25T04:31:57.006Z,2.00
2018-08-25T04:32:57.104Z,1.80
2018-08-25T04:33:57.203Z,2.40
2018-08-25T04:34:57.302Z,1.80
2018-08-25T04:35:57.398Z,2.10
2018-08-25T04:36:57.497Z,2.00
2018-08-25T04:37:57.590Z,2.00
2018-08-25T04:38:57.689Z,1.80
2018-08-25T04:39:57.787Z,2.00
2018-08-25T04:40:57.883Z,1.90
2018-08-25T04:41:57.981Z,2.00
2018-08-25T04:42:58.077Z,1.90
2018-08-25T04:43:58.173Z,1.90
2018-08-25T04:44:58.267Z,2.00
2018-08-25T04:45:58.365Z,2.00
2018-08-25T04:46:58.462Z,2.10
2018-08-25T04:47:58.556Z,1.90
2018-08-25T04:48:58.651Z,2.10
2018-08-25T04:49:58.749Z,2.20
2018-08-25T04:50:58.849Z,1.90
2018-08-25T04:51:58.945Z,1.90
2018-08-25T04:52:59.039Z,1.80
2018-08-25T04:53:59.136Z,2.10
2018-08-25T04:54:59.254Z,2.00
2018-08-25T04:55:59.328Z,1.80
2018-08-25T04:56:59.424Z,2.00
2018-08-25T04:57:59.519Z,2.20
2018-08-25T04:58:59.616Z,1.80
2018-08-25T04:59:59.719Z,2.10
2018-08-25T05:00:59.817Z,1.80
2018-08-25T05:01:59.936Z,1.70
2018-08-25T05:03:00.015Z,2.00
2018-08-25T05:04:00.111Z,2.10
2018-08-25T05:05:00.201Z,1.80
2018-08-25T05:06:00.296Z,1.80
2018-08-25T05:07:00.397Z,1.80
2018-08-25T05:08:00.488Z,1.90
2018-08-25T05:09:00.592Z,1.90
2018-08-25T05:10:00.685Z,1.70
2018-08-25T05:11:00.783Z,1.70
2018-08-25T05:12:00.887Z,2.10
2018-08-25T05:13:00.977Z,2.10
2018-08-25T05:14:01.075Z,1.90
2018-08-25T05:15:01.174Z,1.50
2018-08-25T05:16:01.255Z,1.60
2018-08-25T05:17:01.365Z,2.00
2018-08-25T05:18:02.016Z,1.80
2018-08-25T05:19:01.614Z,2.00
2018-08-25T05:20:01.706Z,2.20
2018-08-25T05:21:01.803Z,1.80
2018-08-25T05:22:01.958Z,2.10
2018-08-25T05:23:01.986Z,1.90
2018-08-25T05:24:02.079Z,2.00
2018-08-25T05:25:02.176Z,1.80
2018-08-25T05:26:02.276Z,1.50
2018-08-25T05:27:02.367Z,1.70
2018-08-25T05:28:02.461Z,2.10
2018-08-25T05:29:02.546Z,1.50
2018-08-25T05:30:02.652Z,1.90
2018-08-25T05:31:02.754Z,1.60
2018-08-25T05:32:02.860Z,1.70
2018-08-25T05:33:02.954Z,1.70
2018-08-25T05:34:03.053Z,1.70
2018-08-25T05:35:03.193Z,1.70
2018-08-25T05:36:03.314Z,1.60
2018-08-25T05:37:03.411Z,1.90
2018-08-25T05:38:03.498Z,1.60
2018-08-25T05:39:03.598Z,1.80
2018-08-25T05:40:03.707Z,1.90
2018-08-25T05:41:03.804Z,1.70
2018-08-25T05:42:03.903Z,1.70
2018-08-25T05:43:04.003Z,1.70
2018-08-25T05:44:04.143Z,2.10
2018-08-25T05:45:04.197Z,1.80
2018-08-25T05:46:04.338Z,1.80
2018-08-25T05:47:04.629Z,1.90
2018-08-25T05:48:04.920Z,1.90
2018-08-25T05:49:04.570Z,2.10
2018-08-25T05:50:04.673Z,2.10
2018-08-25T05:51:04.781Z,1.80
2018-08-25T05:52:04.875Z,1.70
2018-08-25T05:53:04.973Z,1.80
2018-08-25T05:54:05.064Z,1.90
2018-08-25T05:55:05.167Z,1.90
2018-08-25T05:56:05.262Z,1.70
2018-08-25T05:57:05.365Z,1.90
2018-08-25T05:58:05.466Z,1.70
2018-08-25T05:59:05.558Z,1.80
2018-08-25T06:00:05.661Z,1.80
2018-08-25T06:01:05.758Z,1.80
2018-08-25T06:02:05.853Z,1.70
2018-08-25T06:03:05.947Z,2.00
2018-08-25T06:04:06.040Z,2.00
2018-08-25T06:05:06.128Z,1.90
2018-08-25T06:06:06.299Z,1.80
2018-08-25T06:07:06.271Z,2.00
2018-08-25T06:08:06.356Z,1.70
2018-08-25T06:09:06.506Z,1.80
2018-08-25T06:10:06.591Z,1.90
2018-08-25T06:11:06.686Z,2.10
2018-08-25T06:12:06.777Z,2.10
2018-08-25T06:13:06.905Z,1.70
2018-08-25T06:14:07.029Z,2.10
2018-08-25T06:15:07.096Z,2.00
2018-08-25T06:16:07.208Z,1.90
2018-08-25T06:17:07.307Z,1.90
2018-08-25T06:18:07.405Z,2.00
2018-08-25T06:19:07.517Z,1.90
2018-08-25T06:20:07.616Z,2.00
2018-08-25T06:21:07.716Z,1.90
2018-08-25T06:22:07.827Z,1.90
2018-08-25T06:23:07.931Z,1.80
2018-08-25T06:24:08.254Z,1.90
2018-08-25T06:25:08.132Z,2.00
2018-08-25T06:26:08.246Z,2.00
2018-08-25T06:27:08.336Z,1.60
2018-08-25T06:28:08.431Z,2.00
2018-08-25T06:29:08.546Z,1.70
2018-08-25T06:30:08.681Z,2.20
2018-08-25T06:31:08.742Z,1.90
2018-08-25T06:32:08.839Z,2.10
2018-08-25T06:33:08.937Z,2.00
2018-08-25T06:34:09.038Z,2.10
2018-08-25T06:35:09.144Z,2.10
2018-08-25T06:36:09.333Z,1.90
2018-08-25T06:37:09.333Z,1.70
2018-08-25T06:38:09.434Z,1.90
2018-08-25T06:39:09.532Z,2.00
2018-08-25T06:40:09.639Z,1.80
2018-08-25T06:41:09.772Z,1.90
2018-08-25T06:42:09.873Z,1.60
2018-08-25T06:43:09.971Z,1.80
2018-08-25T06:44:10.080Z,2.20
2018-08-25T06:45:10.177Z,1.90
2018-08-25T06:46:10.288Z,2.20
2018-08-25T06:47:10.397Z,1.80
2018-08-25T06:48:10.488Z,2.30
2018-08-25T06:49:10.615Z,2.10
2018-08-25T06:50:10.703Z,2.00
2018-08-25T06:51:10.802Z,1.80
2018-08-25T06:52:10.903Z,1.70
2018-08-25T06:53:11.051Z,1.80
2018-08-25T06:54:11.123Z,2.00
2018-08-25T06:55:11.211Z,2.30
2018-08-25T06:56:11.311Z,2.30
2018-08-25T06:57:11.414Z,2.10
2018-08-25T06:58:11.523Z,2.00
2018-08-25T06:59:11.613Z,2.40
2018-08-25T07:00:11.707Z,2.00
2018-08-25T07:01:11.812Z,2.20
2018-08-25T07:02:11.898Z,2.20
2018-08-25T07:03:12.000Z,2.00
2018-08-25T07:04:12.102Z,2.00
2018-08-25T07:05:12.198Z,2.10
2018-08-25T07:06:12.297Z,2.00
2018-08-25T07:07:12.399Z,2.30
2018-08-25T07:08:12.496Z,2.20
2018-08-25T07:09:12.601Z,2.40
2018-08-25T07:10:12.694Z,2.20
2018-08-25T07:11:12.794Z,2.20
2018-08-25T07:12:12.891Z,2.00
2018-08-25T07:13:13.001Z,2.00
2018-08-25T07:14:13.118Z,1.70
2018-08-25T07:15:13.219Z,1.70
2018-08-25T07:16:13.320Z,2.10
2018-08-25T07:17:13.409Z,1.80
2018-08-25T07:18:13.509Z,1.80
2018-08-25T07:19:13.611Z,1.80
2018-08-25T07:20:13.735Z,1.90
2018-08-25T07:21:13.825Z,1.80
2018-08-25T07:22:13.912Z,1.70
2018-08-25T07:23:14.013Z,1.90
2018-08-25T07:24:14.111Z,1.70
2018-08-25T07:25:14.256Z,2.00
2018-08-25T07:26:14.430Z,1.90
2018-08-25T07:27:14.419Z,1.90
2018-08-25T07:28:14.520Z,2.10
2018-08-25T07:29:14.623Z,2.00
2018-08-25T07:30:14.726Z,1.80
2018-08-25T07:31:14.832Z,1.90
2018-08-25T07:32:15.088Z,2.00
2018-08-25T07:33:15.044Z,1.90
2018-08-25T07:34:15.146Z,1.90
2018-08-25T07:35:15.247Z,1.60
2018-08-25T07:36:15.356Z,2.10
2018-08-25T07:37:15.443Z,1.60
2018-08-25T07:38:15.586Z,1.80
2018-08-25T07:39:15.653Z,1.90
2018-08-25T07:40:15.745Z,1.60
2018-08-25T07:41:15.858Z,1.90
2018-08-25T07:42:15.962Z,1.70
2018-08-25T07:43:16.105Z,2.00
2018-08-25T07:44:16.164Z,2.30
2018-08-25T07:45:16.327Z,2.00
2018-08-25T07:46:16.361Z,1.50
2018-08-25T07:47:16.455Z,1.50
2018-08-25T07:48:16.566Z,1.70
2018-08-25T07:49:16.655Z,1.80
2018-08-25T07:50:16.759Z,1.60
2018-08-25T07:51:16.855Z,1.90
2018-08-25T07:52:16.956Z,1.50
2018-08-25T07:53:17.062Z,1.70
2018-08-25T07:54:17.151Z,2.00
2018-08-25T07:55:17.248Z,1.90
2018-08-25T07:56:17.353Z,1.80
2018-08-25T07:57:17.455Z,1.50
2018-08-25T07:58:17.558Z,1.80
2018-08-25T07:59:17.741Z,1.90
2018-08-25T08:00:17.757Z,1.90
2018-08-25T08:01:17.858Z,1.60
2018-08-25T08:02:17.958Z,1.90
2018-08-25T08:03:18.058Z,1.70
2018-08-25T08:04:18.155Z,1.90
2018-08-25T08:05:18.256Z,1.90
2018-08-25T08:06:18.355Z,1.80
2018-08-25T08:07:18.453Z,2.10
2018-08-25T08:08:18.552Z,2.00
2018-08-25T08:09:18.649Z,2.00
2018-08-25T08:10:18.748Z,1.70
2018-08-25T08:11:18.848Z,1.70
2018-08-25T08:12:19.117Z,2.20
2018-08-25T08:13:19.049Z,2.10
2018-08-25T08:14:19.153Z,1.90
2018-08-25T08:15:19.247Z,1.90
2018-08-25T08:16:19.347Z,1.70
2018-08-25T08:17:19.449Z,1.80
2018-08-25T08:18:19.536Z,1.80
2018-08-25T08:19:19.632Z,1.80
2018-08-25T08:20:19.734Z,1.80
2018-08-25T08:21:19.836Z,2.00
2018-08-25T08:22:19.932Z,2.00
2018-08-25T08:23:20.034Z,2.00
2018-08-25T08:24:20.137Z,2.10
2018-08-25T08:25:20.230Z,2.20
2018-08-25T08:26:20.328Z,1.90
2018-08-25T08:27:20.425Z,1.90
2018-08-25T08:28:20.523Z,1.90
2018-08-25T08:29:20.621Z,1.70
2018-08-25T08:30:20.726Z,2.50
2018-08-25T08:31:20.831Z,2.30
2018-08-25T08:32:20.928Z,1.80
2018-08-25T08:33:21.028Z,1.90
2018-08-25T08:34:21.131Z,1.70
2018-08-25T08:35:21.226Z,1.70
2018-08-25T08:36:21.326Z,2.10
2018-08-25T08:37:21.424Z,2.20
2018-08-25T08:38:21.543Z,2.40
2018-08-25T08:39:21.689Z,2.00
2018-08-25T08:40:21.739Z,2.00
2018-08-25T08:41:21.839Z,1.80
2018-08-25T08:42:22.029Z,2.20
2018-08-25T08:43:22.035Z,2.40
2018-08-25T08:44:22.135Z,2.20
2018-08-25T08:45:22.292Z,2.00
2018-08-25T08:46:22.353Z,2.00
2018-08-25T08:47:22.476Z,2.00
2018-08-25T08:48:22.551Z,1.80
2018-08-25T08:49:22.653Z,2.40
2018-08-25T08:50:22.783Z,2.00
2018-08-25T08:51:22.844Z,2.10
2018-08-25T08:52:22.967Z,2.50
2018-08-25T08:53:23.062Z,2.00
2018-08-25T08:54:23.162Z,2.10
2018-08-25T08:55:23.259Z,2.30
2018-08-25T08:56:23.367Z,2.40
2018-08-25T08:57:23.467Z,2.20
2018-08-25T08:58:23.662Z,1.90
2018-08-25T08:59:23.680Z,2.50
2018-08-25T09:00:23.779Z,2.20
2018-08-25T09:01:23.882Z,2.00
2018-08-25T09:02:23.985Z,2.10
2018-08-25T09:03:24.096Z,2.30
2018-08-25T09:04:24.177Z,2.30
2018-08-25T09:05:24.277Z,1.90
2018-08-25T09:06:24.389Z,2.50
2018-08-25T09:07:24.487Z,2.40
2018-08-25T09:08:24.588Z,2.20
2018-08-25T09:09:24.687Z,2.40
2018-08-25T09:10:24.789Z,2.30
2018-08-25T09:11:24.950Z,2.30
2018-08-25T09:12:24.985Z,2.30
2018-08-25T09:13:25.099Z,2.20
2018-08-25T09:14:25.197Z,2.10
2018-08-25T09:15:25.294Z,2.00
2018-08-25T09:16:25.393Z,1.90
2018-08-25T09:17:25.493Z,2.10
2018-08-25T09:18:25.592Z,2.50
2018-08-25T09:19:25.737Z,2.30
2018-08-25T09:20:25.808Z,2.20
2018-08-25T09:23:57.990Z,2.00
2018-08-25T09:24:58.089Z,2.10
2018-08-25T09:25:58.190Z,2.30
2018-08-25T09:26:58.285Z,2.00
2018-08-25T09:27:58.381Z,2.20
2018-08-25T09:28:58.476Z,2.60
2018-08-25T09:29:58.575Z,2.00
2018-08-25T09:30:58.676Z,2.20
2018-08-25T09:31:58.774Z,2.10
2018-08-25T09:32:58.872Z,2.30
2018-08-25T09:33:58.971Z,2.30
2018-08-25T09:34:59.066Z,2.00
2018-08-25T09:35:59.269Z,2.20
2018-08-25T09:36:59.427Z,2.20
2018-08-25T09:37:59.360Z,2.30
2018-08-25T09:38:59.463Z,2.10
2018-08-25T09:39:59.555Z,2.10
2018-08-25T09:40:59.654Z,2.10
2018-08-25T09:41:59.754Z,2.50
2018-08-25T09:42:59.854Z,2.00
2018-08-25T09:43:59.953Z,2.00
2018-08-25T09:45:00.071Z,1.90
2018-08-25T09:46:00.156Z,1.90
2018-08-25T09:47:00.266Z,1.90
2018-08-25T09:48:00.349Z,1.70
2018-08-25T09:49:00.445Z,2.00
2018-08-25T09:50:00.544Z,2.00
2018-08-25T09:51:00.645Z,1.70
2018-08-25T09:52:00.743Z,1.90
2018-08-25T09:53:00.841Z,1.80
2018-08-25T09:54:00.940Z,1.70
2018-08-25T09:55:01.039Z,1.80
2018-08-25T09:56:01.139Z,1.90
2018-08-25T09:57:01.234Z,1.80
2018-08-25T09:58:01.327Z,1.40
2018-08-25T09:59:01.500Z,2.20
2018-08-25T10:00:01.536Z,1.50
2018-08-25T10:01:01.617Z,1.90
2018-08-25T10:02:01.727Z,1.90
2018-08-25T10:03:01.830Z,1.90
2018-08-25T10:04:01.939Z,2.20
2018-08-25T10:05:02.060Z,1.80
2018-08-25T10:06:02.158Z,1.70
2018-08-25T10:07:02.252Z,1.80
2018-08-25T10:08:02.383Z,1.60
2018-08-25T10:09:02.495Z,1.90
2018-08-25T10:10:02.624Z,1.40
2018-08-25T10:11:02.775Z,1.50
2018-08-25T10:12:02.910Z,2.00
2018-08-25T10:13:02.917Z,1.80
2018-08-25T10:14:03.027Z,1.70
2018-08-25T10:15:03.132Z,1.70
2018-08-25T10:16:03.292Z,1.70
2018-08-25T10:17:03.383Z,1.60
2018-08-25T10:18:03.482Z,1.40
2018-08-25T10:19:03.567Z,1.80
2018-08-25T10:20:03.660Z,1.70
2018-08-25T10:21:03.755Z,1.30
2018-08-25T10:22:03.857Z,1.50
2018-08-25T10:23:04.010Z,1.30
2018-08-25T10:24:04.063Z,1.40
2018-08-25T10:25:04.175Z,1.30
2018-08-25T10:26:04.251Z,1.40
2018-08-25T10:27:04.363Z,1.20
2018-08-25T10:28:04.457Z,1.50
2018-08-25T10:29:04.660Z,1.20
2018-08-25T10:30:04.651Z,1.50
2018-08-25T10:31:04.771Z,1.40
2018-08-25T10:32:04.856Z,1.60
2018-08-25T10:33:04.956Z,1.40
2018-08-25T10:34:05.067Z,1.60
2018-08-25T10:35:05.159Z,1.50
2018-08-25T10:36:05.253Z,1.50
2018-08-25T10:37:05.345Z,1.60
2018-08-25T10:38:05.453Z,1.50
2018-08-25T10:39:05.575Z,1.50
2018-08-25T10:40:05.682Z,1.60
2018-08-25T10:41:05.778Z,1.30
2018-08-25T10:42:05.929Z,1.10
2018-08-25T10:43:05.974Z,1.10
2018-08-25T10:44:06.064Z,1.30
2018-08-25T10:45:06.153Z,1.10
2018-08-25T10:46:06.256Z,1.10
2018-08-25T10:47:06.355Z,1.30
2018-08-25T10:48:06.474Z,1.20
2018-08-25T10:49:06.581Z,1.40
2018-08-25T10:50:06.680Z,1.40
2018-08-25T10:51:06.778Z,1.30
2018-08-25T10:52:06.874Z,1.20
2018-08-25T10:53:06.995Z,1.10
2018-08-25T10:54:07.124Z,1.40
2018-08-25T10:55:07.186Z,1.10
2018-08-25T10:56:07.287Z,1.10
2018-08-25T10:57:07.387Z,1.10
2018-08-25T10:58:07.493Z,1.10
2018-08-25T10:59:07.590Z,1.20
2018-08-25T11:00:07.711Z,1.20
2018-08-25T11:01:07.826Z,1.10
2018-08-25T11:02:07.897Z,1.30
2018-08-25T11:03:07.996Z,1.00
2018-08-25T11:04:08.093Z,1.30
2018-08-25T11:05:08.196Z,1.30
2018-08-25T11:06:08.291Z,1.10
2018-08-25T11:07:08.413Z,1.10
2018-08-25T11:08:08.480Z,1.30
2018-08-25T11:09:08.576Z,1.30
2018-08-25T11:10:08.672Z,1.50
2018-08-25T11:11:08.771Z,1.20
2018-08-25T11:12:08.872Z,1.20
2018-08-25T11:13:08.973Z,1.10
2018-08-25T11:14:09.071Z,1.40
2018-08-25T11:15:09.171Z,1.10
2018-08-25T11:16:09.274Z,1.00
2018-08-25T11:17:09.374Z,1.00
2018-08-25T11:18:09.486Z,1.20
2018-08-25T11:19:09.587Z,1.30
2018-08-25T11:20:09.689Z,1.40
2018-08-25T11:21:09.776Z,1.40
2018-08-25T11:22:09.888Z,1.00
2018-08-25T11:23:09.987Z,1.30
2018-08-25T11:24:10.089Z,1.30
2018-08-25T11:25:10.198Z,1.20
2018-08-25T11:26:10.305Z,1.20
2018-08-25T11:27:10.392Z,1.30
2018-08-25T11:28:10.494Z,1.20
2018-08-25T11:29:10.654Z,1.10
2018-08-25T11:30:10.686Z,1.20
2018-08-25T11:31:10.773Z,1.20
2018-08-25T11:32:10.879Z,0.90
2018-08-25T11:33:10.977Z,1.20
2018-08-25T11:34:11.075Z,1.10
2018-08-25T11:35:11.174Z,1.00
2018-08-25T11:36:11.280Z,0.90
2018-08-25T11:37:11.448Z,1.30
2018-08-25T11:38:11.607Z,1.00
2018-08-25T11:39:11.656Z,1.20
2018-08-25T11:40:11.755Z,1.30
2018-08-25T11:41:11.849Z,1.20
2018-08-25T11:42:11.961Z,1.30
2018-08-25T11:43:12.061Z,1.10
2018-08-25T11:44:12.171Z,1.30
2018-08-25T11:45:12.275Z,1.20
2018-08-25T11:46:12.373Z,1.20
2018-08-25T11:47:12.473Z,1.20
2018-08-25T11:48:12.572Z,1.30
2018-08-25T11:49:12.676Z,1.20
2018-08-25T11:50:12.773Z,1.30
2018-08-25T11:51:12.885Z,1.20
2018-08-25T11:52:12.987Z,1.20
2018-08-25T11:53:13.085Z,1.50
2018-08-25T11:54:13.188Z,1.40
2018-08-25T11:55:13.288Z,1.40
2018-08-25T11:56:13.392Z,1.30
2018-08-25T11:57:13.488Z,1.60
2018-08-25T11:58:13.598Z,1.40
2018-08-25T11:59:13.699Z,1.20
2018-08-25T12:00:13.803Z,1.40
2018-08-25T12:01:13.898Z,1.30
2018-08-25T12:02:14.007Z,1.30
2018-08-25T12:03:14.098Z,1.10
2018-08-25T12:04:14.212Z,1.40
2018-08-25T12:05:14.309Z,1.10
2018-08-25T12:06:14.410Z,1.30
2018-08-25T12:07:14.509Z,1.40
2018-08-25T12:08:14.611Z,1.30
2018-08-25T12:09:14.712Z,1.60
2018-08-25T12:10:14.814Z,1.30
2018-08-25T12:11:14.916Z,1.50
2018-08-25T12:12:15.015Z,1.20
2018-08-25T12:13:15.116Z,1.60
2018-08-25T12:14:15.215Z,1.50
2018-08-25T12:15:15.316Z,1.10
2018-08-25T12:16:15.450Z,1.20
2018-08-25T12:17:15.513Z,1.10
2018-08-25T12:18:15.613Z,1.10
2018-08-25T12:19:15.725Z,1.20
2018-08-25T12:20:15.809Z,1.30
2018-08-25T12:21:15.909Z,1.30
2018-08-25T12:22:16.010Z,1.40
2018-08-25T12:23:16.111Z,1.10
2018-08-25T12:24:16.214Z,1.50
2018-08-25T12:25:16.311Z,1.10
2018-08-25T12:26:16.403Z,1.30
2018-08-25T12:27:16.519Z,1.10
2018-08-25T12:28:16.619Z,1.20
2018-08-25T12:29:16.720Z,1.20
2018-08-25T12:30:16.820Z,1.30
2018-08-25T12:31:16.922Z,1.20
2018-08-25T12:32:17.020Z,1.20
2018-08-25T12:33:17.120Z,1.20
2018-08-25T12:34:17.221Z,1.10
2018-08-25T12:35:17.321Z,1.30
2018-08-25T12:36:17.421Z,1.30
2018-08-25T12:37:17.519Z,1.30
2018-08-25T12:38:17.621Z,1.50
2018-08-25T12:39:17.747Z,1.20
2018-08-25T12:40:17.811Z,1.30
2018-08-25T12:41:17.908Z,1.20
2018-08-25T12:42:18.011Z,1.30
2018-08-25T12:43:18.121Z,1.30
2018-08-25T12:44:18.208Z,1.30
2018-08-25T12:45:18.300Z,1.40
2018-08-25T12:46:18.421Z,1.50
2018-08-25T12:47:18.516Z,1.50
2018-08-25T12:48:18.621Z,1.30
2018-08-25T12:49:18.718Z,1.50
2018-08-25T12:50:18.815Z,1.40
2018-08-25T12:51:18.915Z,1.50
2018-08-25T12:52:19.018Z,1.60
2018-08-25T12:53:19.119Z,1.20
2018-08-25T12:54:19.219Z,1.30
2018-08-25T12:55:19.373Z,1.30
2018-08-25T12:56:19.416Z,1.40
2018-08-25T12:57:19.515Z,1.20
2018-08-25T12:58:19.617Z,1.50
2018-08-25T12:59:19.715Z,1.30
2018-08-25T13:00:19.815Z,1.40
2018-08-25T13:01:19.914Z,1.50
2018-08-25T13:02:20.014Z,1.40
2018-08-25T13:03:20.114Z,1.30
2018-08-25T13:04:20.214Z,1.70
2018-08-25T13:05:20.315Z,1.20
2018-08-25T13:06:20.415Z,1.20
2018-08-25T13:07:20.545Z,1.30
2018-08-25T13:08:20.635Z,1.30
2018-08-25T13:09:20.724Z,1.30
2018-08-25T13:10:20.824Z,1.20
2018-08-25T13:11:20.926Z,1.20
2018-08-25T13:12:21.023Z,1.20
2018-08-25T13:13:21.124Z,1.40
2018-08-25T13:14:21.244Z,1.30
2018-08-25T13:15:21.341Z,1.10
2018-08-25T13:16:21.442Z,1.20
2018-08-25T13:17:21.543Z,1.30
2018-08-25T13:18:21.641Z,1.20
2018-08-25T13:19:21.743Z,1.30
2018-08-25T13:20:21.843Z,1.40
2018-08-25T13:21:22.293Z,1.10
2018-08-25T13:22:22.103Z,1.20